createdAt,value
2022-08-19T00:00:15.554Z,100404.44
2022-08-19T00:02:17.164Z,100423.41
2022-08-19T00:04:20.791Z,100423.09
2022-08-19T00:06:22.378Z,100423.91
2022-08-19T00:08:23.912Z,100423.91
2022-08-19T00:10:25.586Z,100426.28
2022-08-19T00:12:28.528Z,100422.53
2022-08-19T00:14:30.390Z,100411.19
2022-08-19T00:16:31.906Z,100420.53
2022-08-19T00:18:33.739Z,100421.28
2022-08-19T00:20:35.416Z,100429.09
2022-08-19T00:22:37.138Z,100429.78
2022-08-19T00:24:38.928Z,100431.75
2022-08-19T00:26:41.521Z,100418.03
2022-08-19T00:28:44.471Z,100419.84
2022-08-19T00:30:46.106Z,100422.56
2022-08-19T00:32:47.753Z,100413.91
2022-08-19T00:34:49.340Z,100414.03
2022-08-19T00:36:50.993Z,100417.09
2022-08-19T00:38:52.813Z,100408.94
2022-08-19T00:40:54.819Z,100393.53
2022-08-19T00:42:56.514Z,100382.53
2022-08-19T00:44:59.464Z,100385.00
2022-08-19T00:47:01.249Z,100397.34
2022-08-19T00:49:15.616Z,100395.31
2022-08-19T00:51:17.204Z,100402.97
2022-08-19T00:53:23.034Z,100399.19
2022-08-19T00:55:26.844Z,100393.63
2022-08-19T00:57:32.978Z,100400.31
2022-08-19T01:00:00.833Z,100395.97
2022-08-19T01:02:00.505Z,100393.56
2022-08-19T01:04:02.170Z,100404.38
2022-08-19T01:06:03.954Z,100393.84
2022-08-19T01:08:07.137Z,100401.38
2022-08-19T01:10:11.074Z,100397.34
2022-08-19T01:12:12.873Z,100381.72
2022-08-19T01:14:15.581Z,100389.56
2022-08-19T01:16:20.122Z,100393.53
2022-08-19T01:18:24.586Z,100395.44
2022-08-19T01:20:26.685Z,100421.56
2022-08-19T01:22:33.623Z,100422.59
2022-08-19T01:24:35.845Z,100409.72
2022-08-19T01:26:51.121Z,100417.19
2022-08-19T01:28:57.422Z,100423.97
2022-08-19T01:31:08.013Z,100410.00
2022-08-19T01:33:10.064Z,100419.59
2022-08-19T01:35:13.481Z,100423.09
2022-08-19T01:37:15.839Z,100410.56
2022-08-19T01:39:30.131Z,100418.28
2022-08-19T01:41:31.777Z,100399.28
2022-08-19T01:43:33.926Z,100394.78
2022-08-19T01:45:36.410Z,100412.44
2022-08-19T01:47:38.470Z,100404.38
2022-08-19T01:49:40.152Z,100400.25
2022-08-19T01:51:41.819Z,100414.41
2022-08-19T01:53:43.449Z,100440.66
2022-08-19T01:55:47.391Z,100449.94
2022-08-19T01:57:53.186Z,100452.22
2022-08-19T01:59:54.765Z,100433.09
2022-08-19T02:01:56.320Z,100410.91
2022-08-19T02:03:58.002Z,100404.06
2022-08-19T02:06:01.129Z,100405.06
2022-08-19T02:08:03.109Z,100386.13
2022-08-19T02:10:06.634Z,100372.47
2022-08-19T02:12:15.463Z,100340.59
2022-08-19T02:14:17.053Z,100353.47
2022-08-19T02:16:18.826Z,100343.19
2022-08-19T02:18:20.381Z,100337.34
2022-08-19T02:20:21.867Z,100325.94
2022-08-19T02:22:23.859Z,100315.09
2022-08-19T02:24:25.653Z,100318.19
2022-08-19T02:26:27.315Z,100337.44
2022-08-19T02:28:30.411Z,100325.88
2022-08-19T02:30:32.043Z,100326.19
2022-08-19T02:32:33.595Z,100322.72
2022-08-19T02:34:46.344Z,100315.56
2022-08-19T02:36:51.635Z,100302.06
2022-08-19T02:38:54.529Z,100283.09
2022-08-19T02:40:59.316Z,100292.09
2022-08-19T02:43:01.528Z,100293.09
2022-08-19T02:45:05.341Z,100285.69
2022-08-19T02:47:07.332Z,100306.66
2022-08-19T02:49:09.282Z,100298.03
2022-08-19T02:51:17.311Z,100323.09
2022-08-19T02:53:18.901Z,100323.81
2022-08-19T02:55:20.533Z,100320.34
2022-08-19T02:57:22.074Z,100319.16
2022-08-19T02:59:23.628Z,100328.66
2022-08-19T03:01:28.854Z,100331.19
2022-08-19T03:03:30.574Z,100325.56
2022-08-19T03:05:55.947Z,100323.22
2022-08-19T03:07:53.710Z,100322.31
2022-08-19T03:09:55.232Z,100322.38
2022-08-19T03:11:57.075Z,100327.53
2022-08-19T03:14:00.040Z,100328.13
2022-08-19T03:16:05.569Z,100332.22
2022-08-19T03:18:08.696Z,100333.31
2022-08-19T03:20:11.123Z,100318.56
2022-08-19T03:22:12.669Z,100321.72
2022-08-19T03:24:15.430Z,100320.97
2022-08-19T03:26:17.388Z,100325.53
2022-08-19T03:28:18.939Z,100317.25
2022-08-19T03:30:23.312Z,100320.00
2022-08-19T03:32:32.440Z,100317.94
2022-08-19T03:34:38.226Z,100307.91
2022-08-19T03:36:40.141Z,100308.13
2022-08-19T03:38:44.084Z,100306.09
2022-08-19T03:40:45.611Z,100296.25
2022-08-19T03:42:48.915Z,100298.38
2022-08-19T03:44:51.145Z,100304.03
2022-08-19T03:46:54.732Z,100311.84
2022-08-19T03:48:58.756Z,100308.53
2022-08-19T03:51:02.028Z,100313.31
2022-08-19T03:53:03.576Z,100309.38
2022-08-19T03:55:06.561Z,100307.06
2022-08-19T03:57:08.118Z,100311.56
2022-08-19T03:59:12.194Z,100313.00
2022-08-19T04:01:17.132Z,100311.19
2022-08-19T04:03:18.816Z,100307.09
2022-08-19T04:05:20.360Z,100312.72
2022-08-19T04:07:27.808Z,100314.81
2022-08-19T04:09:29.391Z,100315.56
2022-08-19T04:11:43.528Z,100336.78
2022-08-19T04:13:46.034Z,100310.13
2022-08-19T04:15:47.697Z,100332.53
2022-08-19T04:17:49.432Z,100322.97
2022-08-19T04:19:51.083Z,100326.94
2022-08-19T04:21:55.224Z,100336.44
2022-08-19T04:23:58.710Z,100316.06
2022-08-19T04:26:01.084Z,100351.97
2022-08-19T04:28:02.935Z,100342.84
2022-08-19T04:30:05.476Z,100338.44
2022-08-19T04:32:08.685Z,100339.22
2022-08-19T04:34:12.936Z,100343.22
2022-08-19T04:36:17.715Z,100331.78
2022-08-19T04:38:22.941Z,100312.84
2022-08-19T04:40:25.861Z,100329.13
2022-08-19T04:42:30.691Z,100334.78
2022-08-19T04:44:35.226Z,100336.06
2022-08-19T04:46:40.066Z,100338.09
2022-08-19T04:48:49.556Z,100327.66
2022-08-19T04:50:51.478Z,100332.69
2022-08-19T04:52:53.159Z,100331.41
2022-08-19T04:54:55.117Z,100348.06
2022-08-19T04:56:58.277Z,100327.47
2022-08-19T04:59:00.243Z,100331.50
2022-08-19T05:01:01.929Z,100330.66
2022-08-19T05:03:03.603Z,100325.19
2022-08-19T05:05:09.642Z,100326.56
2022-08-19T05:07:11.408Z,100319.97
2022-08-19T05:09:12.968Z,100321.34
2022-08-19T05:11:18.555Z,100319.66
2022-08-19T05:13:21.441Z,100306.31
2022-08-19T05:15:23.021Z,100315.00
2022-08-19T05:17:27.674Z,100311.94
2022-08-19T05:19:29.946Z,100304.31
2022-08-19T05:21:36.243Z,100299.75
2022-08-19T05:23:38.234Z,100292.59
2022-08-19T05:25:40.778Z,100303.78
2022-08-19T05:27:43.287Z,100287.16
2022-08-19T05:29:46.221Z,100305.47
2022-08-19T05:31:49.512Z,100303.41
2022-08-19T05:33:51.097Z,100309.50
2022-08-19T05:35:52.701Z,100305.47
2022-08-19T05:37:54.876Z,100304.81
2022-08-19T05:40:00.608Z,100317.03
2022-08-19T05:42:05.475Z,100303.81
2022-08-19T05:44:07.010Z,100298.38
2022-08-19T05:46:17.827Z,100304.47
2022-08-19T05:48:20.179Z,100309.91
2022-08-19T05:50:22.232Z,100311.63
2022-08-19T05:52:25.698Z,100308.91
2022-08-19T05:54:28.043Z,100315.34
2022-08-19T05:56:29.775Z,100324.50
2022-08-19T05:58:31.515Z,100320.03
2022-08-19T06:00:33.074Z,100339.03
2022-08-19T06:02:36.003Z,100339.22
2022-08-19T06:04:37.617Z,100319.00
2022-08-19T06:06:39.124Z,100341.84
2022-08-19T06:08:40.811Z,100333.25
2022-08-19T06:10:42.740Z,100339.03
2022-08-19T06:12:44.270Z,100316.31
2022-08-19T06:14:45.830Z,100314.97
2022-08-19T06:16:48.089Z,100320.72
2022-08-19T06:18:52.173Z,100306.53
2022-08-19T06:20:55.911Z,100319.59
2022-08-19T06:22:57.838Z,100325.53
2022-08-19T06:24:59.412Z,100322.47
2022-08-19T06:27:01.902Z,100326.88
2022-08-19T06:29:04.795Z,100330.09
2022-08-19T06:31:07.659Z,100315.69
2022-08-19T06:33:09.243Z,100332.81
2022-08-19T06:35:12.288Z,100332.97
2022-08-19T06:37:14.866Z,100344.16
2022-08-19T06:39:19.639Z,100352.31
2022-08-19T06:41:21.244Z,100344.84
2022-08-19T06:43:22.788Z,100360.78
2022-08-19T06:45:35.447Z,100369.09
2022-08-19T06:47:37.185Z,100373.19
2022-08-19T06:49:38.879Z,100371.13
2022-08-19T06:51:43.661Z,100370.47
2022-08-19T06:53:46.459Z,100377.41
2022-08-19T06:55:49.177Z,100375.88
2022-08-19T06:57:50.852Z,100379.44
2022-08-19T06:59:53.021Z,100388.94
2022-08-19T07:01:57.139Z,100344.63
2022-08-19T07:03:59.204Z,100370.63
2022-08-19T07:06:05.389Z,100360.44
2022-08-19T07:08:10.270Z,100356.88
2022-08-19T07:10:12.129Z,100363.16
2022-08-19T07:12:15.118Z,100355.72
2022-08-19T07:14:19.395Z,100348.25
2022-08-19T07:16:21.672Z,100357.56
2022-08-19T07:18:30.852Z,100359.94
2022-08-19T07:20:32.441Z,100380.81
2022-08-19T07:22:33.988Z,100380.25
2022-08-19T07:24:38.368Z,100377.34
2022-08-19T07:26:45.348Z,100369.69
2022-08-19T07:28:52.811Z,100354.97
2022-08-19T07:30:54.821Z,100368.38
2022-08-19T07:32:57.485Z,100394.16
2022-08-19T07:34:59.089Z,100380.06
2022-08-19T07:37:00.734Z,100398.72
2022-08-19T07:39:06.091Z,100398.91
2022-08-19T07:41:10.893Z,100396.66
2022-08-19T07:43:16.979Z,100394.66
2022-08-19T07:45:19.712Z,100407.19
2022-08-19T07:47:50.423Z,100402.06
2022-08-19T07:49:42.808Z,100398.31
2022-08-19T07:51:45.173Z,100398.78
2022-08-19T07:53:47.641Z,100397.97
2022-08-19T07:55:49.886Z,100411.22
2022-08-19T07:57:52.737Z,100412.81
2022-08-19T07:59:54.278Z,100411.84
2022-08-19T08:01:57.235Z,100414.53
2022-08-19T08:03:59.170Z,100414.38
2022-08-19T08:06:00.733Z,100425.44
2022-08-19T08:08:02.479Z,100423.81
2022-08-19T08:10:05.604Z,100429.41
2022-08-19T08:12:32.911Z,100433.84
2022-08-19T08:14:36.796Z,100444.56
2022-08-19T08:16:46.800Z,100442.22
2022-08-19T08:18:50.563Z,100448.00
2022-08-19T08:20:55.466Z,100439.16
2022-08-19T08:22:57.048Z,100446.47
2022-08-19T08:25:02.161Z,100448.13
2022-08-19T08:27:04.080Z,100445.94
2022-08-19T08:29:13.212Z,100437.28
2022-08-19T08:31:16.114Z,100445.72
2022-08-19T08:33:20.049Z,100442.13
2022-08-19T08:35:35.209Z,100445.50
2022-08-19T08:37:36.920Z,100450.25
2022-08-19T08:39:38.658Z,100441.75
2022-08-19T08:41:47.543Z,100447.78
2022-08-19T08:43:51.830Z,100440.00
2022-08-19T08:45:59.919Z,100453.53
2022-08-19T08:48:22.357Z,100443.31
2022-08-19T08:50:33.003Z,100452.91
2022-08-19T08:52:40.105Z,100453.91
2022-08-19T08:54:48.979Z,100454.66
2022-08-19T08:56:57.569Z,100447.91
2022-08-19T08:59:02.782Z,100452.63
2022-08-19T09:01:04.365Z,100450.59
2022-08-19T09:03:15.217Z,100457.59
2022-08-19T09:05:17.075Z,100461.97
2022-08-19T09:07:38.036Z,100453.69
2022-08-19T09:09:43.039Z,100460.13
2022-08-19T09:11:57.671Z,100458.06
2022-08-19T09:14:23.529Z,100452.91
2022-08-19T09:16:31.561Z,100451.16
2022-08-19T09:18:43.787Z,100457.78
2022-08-19T09:20:46.503Z,100453.91
2022-08-19T09:22:48.517Z,100458.31
2022-08-19T09:24:50.316Z,100447.44
2022-08-19T09:26:52.520Z,100439.44
2022-08-19T09:28:54.613Z,100441.63
2022-08-19T09:30:56.177Z,100443.28
2022-08-19T09:32:57.922Z,100438.13
2022-08-19T09:35:01.255Z,100439.22
2022-08-19T09:37:05.133Z,100437.78
2022-08-19T09:39:16.192Z,100428.25
2022-08-19T09:41:20.015Z,100434.31
2022-08-19T09:43:33.018Z,100430.34
2022-08-19T09:45:35.699Z,100439.34
2022-08-19T09:47:37.788Z,100437.56
2022-08-19T09:49:42.530Z,100436.00
2022-08-19T09:51:50.788Z,100432.34
2022-08-19T09:53:53.050Z,100446.97
2022-08-19T09:55:56.461Z,100448.53
2022-08-19T09:57:57.989Z,100441.81
2022-08-19T09:59:59.594Z,100446.81
2022-08-19T10:02:03.957Z,100443.47
2022-08-19T10:04:19.763Z,100440.72
2022-08-19T10:06:39.922Z,100439.53
2022-08-19T10:08:50.178Z,100446.44
2022-08-19T10:10:52.576Z,100436.41
2022-08-19T10:12:54.082Z,100434.72
2022-08-19T10:14:55.621Z,100438.91
2022-08-19T10:16:57.607Z,100427.75
2022-08-19T10:19:00.916Z,100429.09
2022-08-19T10:21:09.290Z,100425.94
2022-08-19T10:23:13.244Z,100430.72
2022-08-19T10:25:16.199Z,100431.03
2022-08-19T10:27:17.764Z,100433.47
2022-08-19T10:29:31.841Z,100424.09
2022-08-19T10:32:00.761Z,100435.50
2022-08-19T10:33:57.824Z,100431.25
2022-08-19T10:36:01.017Z,100434.69
2022-08-19T10:38:02.686Z,100438.09
2022-08-19T10:40:06.591Z,100441.31
2022-08-19T10:42:10.401Z,100444.53
2022-08-19T10:44:13.987Z,100431.47
2022-08-19T10:46:16.715Z,100430.47
2022-08-19T10:48:19.577Z,100444.22
2022-08-19T10:50:21.189Z,100438.13
2022-08-19T10:52:32.482Z,100440.72
2022-08-19T10:54:34.650Z,100436.97
2022-08-19T10:56:36.806Z,100454.44
2022-08-19T10:58:39.779Z,100429.34
2022-08-19T11:00:42.017Z,100438.50
2022-08-19T11:02:43.744Z,100417.09
2022-08-19T11:04:45.491Z,100422.53
2022-08-19T11:06:49.355Z,100440.53
2022-08-19T11:08:50.888Z,100455.28
2022-08-19T11:10:53.738Z,100448.84
2022-08-19T11:12:55.347Z,100444.41
2022-08-19T11:14:59.115Z,100432.03
2022-08-19T11:17:00.887Z,100450.03
2022-08-19T11:19:02.527Z,100453.44
2022-08-19T11:21:09.445Z,100441.91
2022-08-19T11:23:11.011Z,100449.34
2022-08-19T11:25:12.849Z,100449.00
2022-08-19T11:27:14.402Z,100460.41
2022-08-19T11:29:18.888Z,100438.50
2022-08-19T11:31:24.870Z,100459.19
2022-08-19T11:33:31.176Z,100457.00
2022-08-19T11:35:32.762Z,100448.84
2022-08-19T11:37:34.374Z,100442.72
2022-08-19T11:39:36.823Z,100451.56
2022-08-19T11:41:38.490Z,100437.13
2022-08-19T11:43:40.048Z,100443.25
2022-08-19T11:45:41.597Z,100434.91
2022-08-19T11:47:44.593Z,100454.56
2022-08-19T11:49:46.894Z,100450.53
2022-08-19T11:51:49.416Z,100462.25
2022-08-19T11:53:51.823Z,100469.19
2022-08-19T11:55:54.476Z,100454.09
2022-08-19T11:57:56.166Z,100487.38
2022-08-19T11:59:57.863Z,100438.50
2022-08-19T12:01:59.465Z,100465.31
2022-08-19T12:04:02.493Z,100467.03
2022-08-19T12:06:06.091Z,100475.47
2022-08-19T12:08:08.679Z,100464.44
2022-08-19T12:10:10.875Z,100482.84
2022-08-19T12:12:13.238Z,100488.91
2022-08-19T12:14:14.970Z,100485.44
2022-08-19T12:16:19.312Z,100482.81
2022-08-19T12:18:21.074Z,100480.28
2022-08-19T12:20:25.153Z,100487.78
2022-08-19T12:22:26.721Z,100497.44
2022-08-19T12:24:28.398Z,100482.81
2022-08-19T12:26:30.841Z,100495.19
2022-08-19T12:28:32.653Z,100493.75
2022-08-19T12:30:34.195Z,100502.53
2022-08-19T12:32:35.842Z,100497.06
2022-08-19T12:34:37.402Z,100497.75
2022-08-19T12:36:40.277Z,100499.47
2022-08-19T12:38:42.528Z,100504.16
2022-08-19T12:40:48.727Z,100495.91
2022-08-19T12:42:50.301Z,100498.50
2022-08-19T12:44:51.840Z,100493.84
2022-08-19T12:46:53.856Z,100497.44
2022-08-19T12:48:56.184Z,100496.59
2022-08-19T12:50:57.790Z,100491.59
2022-08-19T12:53:00.744Z,100497.81
2022-08-19T12:55:02.532Z,100486.44
2022-08-19T12:57:07.204Z,100486.50
2022-08-19T12:59:08.791Z,100488.94
2022-08-19T13:01:15.734Z,100479.25
2022-08-19T13:03:19.133Z,100493.97
2022-08-19T13:05:23.856Z,100502.31
2022-08-19T13:07:25.590Z,100511.94
2022-08-19T13:09:28.476Z,100508.06
2022-08-19T13:11:30.171Z,100510.78
2022-08-19T13:13:31.726Z,100512.22
2022-08-19T13:15:35.292Z,100515.66
2022-08-19T13:17:37.421Z,100512.38
2022-08-19T13:19:38.987Z,100517.50
2022-08-19T13:21:40.511Z,100511.22
2022-08-19T13:23:44.185Z,100511.06
2022-08-19T13:25:56.741Z,100509.03
2022-08-19T13:27:58.387Z,100506.97
2022-08-19T13:30:00.330Z,100510.84
2022-08-19T13:32:01.909Z,100508.34
2022-08-19T13:34:05.438Z,100502.56
2022-08-19T13:36:07.418Z,100502.19
2022-08-19T13:38:11.869Z,100504.91
2022-08-19T13:40:15.734Z,100498.28
2022-08-19T13:42:18.689Z,100497.03
2022-08-19T13:44:20.889Z,100500.41
2022-08-19T13:46:22.487Z,100498.16
2022-08-19T13:48:25.020Z,100505.13
2022-08-19T13:50:28.690Z,100498.00
2022-08-19T13:52:31.114Z,100499.34
2022-08-19T13:54:32.737Z,100494.56
2022-08-19T13:56:34.309Z,100485.84
2022-08-19T13:58:38.624Z,100494.09
2022-08-19T14:00:43.711Z,100493.72
2022-08-19T14:02:46.896Z,100494.69
2022-08-19T14:04:48.514Z,100495.53
2022-08-19T14:06:50.101Z,100489.38
2022-08-19T14:08:51.898Z,100484.66
2022-08-19T14:10:53.430Z,100490.81
2022-08-19T14:12:55.932Z,100490.63
2022-08-19T14:14:58.936Z,100488.09
2022-08-19T14:17:00.457Z,100489.72
2022-08-19T14:19:01.985Z,100488.88
2022-08-19T14:21:03.992Z,100491.78
2022-08-19T14:23:05.552Z,100494.00
2022-08-19T14:25:09.513Z,100495.31
2022-08-19T14:27:11.120Z,100493.94
2022-08-19T14:29:12.654Z,100491.03
2022-08-19T14:31:17.183Z,100496.75
2022-08-19T14:33:18.731Z,100496.34
2022-08-19T14:35:21.321Z,100478.25
2022-08-19T14:37:22.843Z,100491.59
2022-08-19T14:39:26.596Z,100490.63
2022-08-19T14:41:28.585Z,100491.97
2022-08-19T14:43:30.090Z,100492.88
2022-08-19T14:45:34.769Z,100485.34
2022-08-19T14:47:39.963Z,100480.47
2022-08-19T14:49:44.849Z,100486.06
2022-08-19T14:51:49.943Z,100487.72
2022-08-19T14:53:51.901Z,100496.81
2022-08-19T14:55:53.476Z,100499.34
2022-08-19T14:57:55.219Z,100502.06
2022-08-19T14:59:59.912Z,100506.22
2022-08-19T15:02:20.206Z,100516.78
2022-08-19T15:04:24.400Z,100514.78
2022-08-19T15:06:26.298Z,100521.84
2022-08-19T15:08:29.503Z,100531.88
2022-08-19T15:10:31.357Z,100532.44
2022-08-19T15:12:33.112Z,100534.50
2022-08-19T15:14:37.834Z,100534.38
2022-08-19T15:16:39.430Z,100537.94
2022-08-19T15:18:41.518Z,100535.94
2022-08-19T15:20:44.714Z,100546.09
2022-08-19T15:22:48.660Z,100547.47
2022-08-19T15:24:50.179Z,100551.53
2022-08-19T15:26:52.622Z,100549.53
2022-08-19T15:28:54.685Z,100555.34
2022-08-19T15:30:56.268Z,100538.53
2022-08-19T15:32:58.796Z,100555.69
2022-08-19T15:35:00.377Z,100557.91
2022-08-19T15:37:03.456Z,100566.41
2022-08-19T15:39:06.319Z,100564.88
2022-08-19T15:41:17.118Z,100565.84
2022-08-19T15:43:19.983Z,100559.06
2022-08-19T15:45:22.540Z,100547.53
2022-08-19T15:47:24.094Z,100543.28
2022-08-19T15:49:25.695Z,100544.47
2022-08-19T15:51:29.634Z,100540.38
2022-08-19T15:53:32.838Z,100549.91
2022-08-19T15:55:43.682Z,100546.31
2022-08-19T15:57:45.227Z,100548.88
2022-08-19T15:59:47.763Z,100557.38
2022-08-19T16:01:49.487Z,100551.09
2022-08-19T16:03:52.780Z,100551.25
2022-08-19T16:05:54.310Z,100545.31
2022-08-19T16:07:56.299Z,100550.91
2022-08-19T16:09:59.243Z,100545.16
2022-08-19T16:12:21.216Z,100533.94
2022-08-19T16:14:22.837Z,100521.69
2022-08-19T16:16:31.097Z,100531.91
2022-08-19T16:18:35.552Z,100544.81
2022-08-19T16:20:37.087Z,100546.00
2022-08-19T16:22:39.249Z,100549.91
2022-08-19T16:24:40.964Z,100547.19
2022-08-19T16:26:44.997Z,100552.28
2022-08-19T16:28:47.464Z,100548.88
2022-08-19T16:30:50.998Z,100557.38
2022-08-19T16:32:52.737Z,100555.00
2022-08-19T16:34:54.275Z,100548.88
2022-08-19T16:36:55.863Z,100554.13
2022-08-19T16:38:57.456Z,100555.00
2022-08-19T16:40:59.429Z,100553.97
2022-08-19T16:43:02.692Z,100550.59
2022-08-19T16:45:05.215Z,100556.69
2022-08-19T16:47:06.950Z,100552.97
2022-08-19T16:49:09.258Z,100552.28
2022-08-19T16:51:12.124Z,100549.41
2022-08-19T16:53:13.851Z,100550.91
2022-08-19T16:55:15.773Z,100551.59
2022-08-19T16:57:17.341Z,100558.38
2022-08-19T16:59:21.585Z,100558.03
2022-08-19T17:01:23.381Z,100568.25
2022-08-19T17:03:35.659Z,100564.50
2022-08-19T17:05:42.489Z,100556.69
2022-08-19T17:07:44.048Z,100559.06
2022-08-19T17:09:45.583Z,100560.25
2022-08-19T17:11:48.133Z,100562.06
2022-08-19T17:13:50.496Z,100556.00
2022-08-19T17:15:53.491Z,100552.56
2022-08-19T17:17:59.562Z,100554.13
2022-08-19T17:20:02.532Z,100566.31
2022-08-19T17:22:04.213Z,100569.63
2022-08-19T17:24:06.776Z,100566.31
2022-08-19T17:26:08.353Z,100569.88
2022-08-19T17:28:20.780Z,100570.63
2022-08-19T17:30:23.500Z,100574.19
2022-08-19T17:32:26.545Z,100561.19
2022-08-19T17:34:28.164Z,100563.25
2022-08-19T17:36:31.918Z,100570.19
2022-08-19T17:38:33.908Z,100579.03
2022-08-19T17:40:35.693Z,100583.75
2022-08-19T17:42:38.254Z,100585.38
2022-08-19T17:44:39.792Z,100589.44
2022-08-19T17:46:41.410Z,100590.88
2022-08-19T17:48:47.364Z,100584.72
2022-08-19T17:50:51.217Z,100578.94
2022-08-19T17:52:53.180Z,100591.47
2022-08-19T17:54:54.787Z,100590.78
2022-08-19T17:56:56.383Z,100590.13
2022-08-19T17:59:00.520Z,100594.28
2022-08-19T18:01:03.095Z,100590.78
2022-08-19T18:03:06.302Z,100602.03
2022-08-19T18:05:09.979Z,100599.03
2022-08-19T18:07:11.789Z,100607.09
2022-08-19T18:09:13.688Z,100611.13
2022-08-19T18:11:16.537Z,100612.25
2022-08-19T18:13:18.164Z,100606.47
2022-08-19T18:15:21.053Z,100609.50
2022-08-19T18:17:22.605Z,100598.25
2022-08-19T18:19:25.356Z,100601.91
2022-08-19T18:21:32.987Z,100602.56
2022-08-19T18:23:45.533Z,100597.47
2022-08-19T18:25:47.518Z,100609.25
2022-08-19T18:27:49.144Z,100611.72
2022-08-19T18:29:50.895Z,100615.13
2022-08-19T18:31:52.447Z,100611.19
2022-08-19T18:33:54.278Z,100605.50
2022-08-19T18:35:55.867Z,100618.59
2022-08-19T18:38:01.188Z,100619.56
2022-08-19T18:40:03.830Z,100631.75
2022-08-19T18:42:05.858Z,100616.13
2022-08-19T18:44:07.518Z,100631.97
2022-08-19T18:46:09.225Z,100638.94
2022-08-19T18:48:24.249Z,100632.94
2022-08-19T18:50:29.552Z,100641.69
2022-08-19T18:52:31.152Z,100638.59
2022-08-19T18:54:34.534Z,100636.22
2022-08-19T18:56:36.198Z,100646.25
2022-08-19T18:58:38.602Z,100639.66
2022-08-19T19:00:40.244Z,100643.38
2022-08-19T19:02:41.993Z,100645.94
2022-08-19T19:04:44.118Z,100647.09
2022-08-19T19:06:46.215Z,100656.63
2022-08-19T19:08:48.583Z,100658.94
2022-08-19T19:10:51.506Z,100664.16
2022-08-19T19:12:53.040Z,100665.09
2022-08-19T19:14:54.645Z,100671.28
2022-08-19T19:16:56.478Z,100675.94
2022-08-19T19:19:00.583Z,100673.88
2022-08-19T19:21:02.201Z,100688.44
2022-08-19T19:23:04.270Z,100680.09
2022-08-19T19:25:06.237Z,100676.38
2022-08-19T19:27:09.637Z,100673.75
2022-08-19T19:29:11.826Z,100671.41
2022-08-19T19:31:16.022Z,100675.22
2022-08-19T19:33:17.624Z,100672.38
2022-08-19T19:35:19.174Z,100678.53
2022-08-19T19:37:20.966Z,100681.25
2022-08-19T19:39:45.447Z,100685.19
2022-08-19T19:41:44.404Z,100689.56
2022-08-19T19:43:47.407Z,100699.34
2022-08-19T19:45:58.495Z,100705.84
2022-08-19T19:48:00.276Z,100698.00
2022-08-19T19:50:14.361Z,100692.66
2022-08-19T19:52:17.074Z,100694.66
2022-08-19T19:54:23.343Z,100688.50
2022-08-19T19:56:25.432Z,100692.66
2022-08-19T19:58:28.940Z,100695.38
2022-08-19T20:00:32.377Z,100699.97
2022-08-19T20:02:34.011Z,100702.22
2022-08-19T20:04:35.591Z,100696.56
2022-08-19T20:06:37.229Z,100693.59
2022-08-19T20:08:39.333Z,100683.75
2022-08-19T20:10:42.742Z,100692.03
2022-08-19T20:12:44.312Z,100696.31
2022-08-19T20:14:45.879Z,100702.13
2022-08-19T20:16:50.599Z,100707.69
2022-08-19T20:18:52.203Z,100700.88
2022-08-19T20:20:57.423Z,100694.81
2022-08-19T20:22:59.015Z,100693.75
2022-08-19T20:25:00.701Z,100682.91
2022-08-19T20:27:04.263Z,100686.50
2022-08-19T20:29:13.319Z,100684.78
2022-08-19T20:31:25.390Z,100685.19
2022-08-19T20:33:32.708Z,100670.03
2022-08-19T20:35:36.683Z,100670.66
2022-08-19T20:37:38.274Z,100686.47
2022-08-19T20:39:39.835Z,100675.94
2022-08-19T20:41:41.434Z,100683.38
2022-08-19T20:43:44.380Z,100688.56
2022-08-19T20:45:48.647Z,100682.97
2022-08-19T20:47:50.210Z,100682.97
2022-08-19T20:49:53.132Z,100682.97
2022-08-19T20:51:56.501Z,100674.25
2022-08-19T20:53:58.712Z,100672.66
2022-08-19T20:56:00.544Z,100670.34
2022-08-19T20:58:02.203Z,100667.53
2022-08-19T21:00:06.615Z,100655.91
2022-08-19T21:02:08.180Z,100663.41
2022-08-19T21:04:09.717Z,100665.28
2022-08-19T21:06:14.320Z,100656.44
2022-08-19T21:08:17.038Z,100659.41
2022-08-19T21:10:18.684Z,100663.19
2022-08-19T21:12:20.220Z,100662.81
2022-08-19T21:14:21.788Z,100668.44
2022-08-19T21:16:23.338Z,100664.91
2022-08-19T21:18:25.143Z,100654.31
2022-08-19T21:20:26.892Z,100666.22
2022-08-19T21:22:29.788Z,100671.53
2022-08-19T21:24:31.892Z,100689.28
2022-08-19T21:26:33.471Z,100702.53
2022-08-19T21:28:36.438Z,100704.94
2022-08-19T21:30:40.170Z,100705.25
2022-08-19T21:32:41.725Z,100706.31
2022-08-19T21:34:46.272Z,100705.78
2022-08-19T21:36:48.218Z,100708.56
2022-08-19T21:38:51.084Z,100702.47
2022-08-19T21:40:52.670Z,100700.53
2022-08-19T21:42:54.624Z,100688.06
2022-08-19T21:44:56.156Z,100680.09
2022-08-19T21:46:57.677Z,100692.47
2022-08-19T21:48:59.216Z,100684.94
2022-08-19T21:51:00.947Z,100692.16
2022-08-19T21:53:02.554Z,100691.94
2022-08-19T21:55:07.384Z,100701.69
2022-08-19T21:57:10.378Z,100701.06
2022-08-19T21:59:12.601Z,100695.03
2022-08-19T22:01:14.239Z,100693.44
2022-08-19T22:03:17.200Z,100699.50
2022-08-19T22:05:19.554Z,100694.78
2022-08-19T22:07:22.249Z,100698.75
2022-08-19T22:09:23.787Z,100686.91
2022-08-19T22:11:27.635Z,100692.63
2022-08-19T22:13:35.918Z,100684.19
2022-08-19T22:15:40.822Z,100679.94
2022-08-19T22:17:43.036Z,100670.31
2022-08-19T22:19:44.596Z,100674.03
2022-08-19T22:21:46.522Z,100669.94
2022-08-19T22:23:48.299Z,100666.53
2022-08-19T22:25:49.828Z,100661.66
2022-08-19T22:27:53.256Z,100656.31
2022-08-19T22:29:58.427Z,100679.00
2022-08-19T22:32:00.697Z,100665.00
2022-08-19T22:34:22.199Z,100684.44
2022-08-19T22:36:23.802Z,100690.63
2022-08-19T22:38:26.494Z,100684.66
2022-08-19T22:40:29.708Z,100682.56
2022-08-19T22:42:31.922Z,100685.06
2022-08-19T22:44:36.114Z,100681.34
2022-08-19T22:46:37.785Z,100681.97
2022-08-19T22:48:39.344Z,100681.88
2022-08-19T22:50:42.946Z,100669.09
2022-08-19T22:52:52.129Z,100659.97
2022-08-19T22:54:56.132Z,100672.19
2022-08-19T22:56:57.637Z,100668.34
2022-08-19T22:58:59.269Z,100669.81
2022-08-19T23:01:03.067Z,100663.63
2022-08-19T23:03:04.682Z,100671.03
2022-08-19T23:05:08.472Z,100679.38
2022-08-19T23:07:09.985Z,100677.59
2022-08-19T23:09:16.978Z,100684.03
2022-08-19T23:11:18.756Z,100686.69
2022-08-19T23:13:20.296Z,100681.00
2022-08-19T23:15:25.169Z,100679.06
2022-08-19T23:17:28.134Z,100673.56
2022-08-19T23:19:29.673Z,100680.00
2022-08-19T23:21:31.229Z,100677.28
2022-08-19T23:23:32.911Z,100676.88
2022-08-19T23:25:36.336Z,100682.16
2022-08-19T23:27:37.938Z,100683.63
2022-08-19T23:29:39.537Z,100686.72